KAZO/AZO METAR and TAF weather

Enter ICAO airport designator
Station Type Date Time Source
KAZO METAR 2021/09/24 04:53 UTC NOAA

KAZO 240453Z AUTO 25005KT 10SM FEW085 SCT120 12/07 A2991 RMK AO2 SLP130 T01170067 401500089


Station Type Date Time Source
KAZO Decoded METAR 2021/09/24 04:53 UTC NOAA

KALAMAZOO/BATTLE CREEK AIRPORT, MI, United States (KAZO) 42-14N 085-33W 272M
Sep 24, 2021 - 12:53 AM EDT / 2021.09.24 0453 UTC
Wind: from the WSW (250 degrees) at 6 MPH (5 KT):0
Visibility: 10 mile(s):0
Sky conditions: partly cloudy
Temperature: 53.1 F (11.7 C)
Dew Point: 44.1 F (6.7 C)
Relative Humidity: 71%
Pressure (altimeter): 29.91 in. Hg (1012 hPa)
ob: KAZO 240453Z AUTO 25005KT 10SM FEW085 SCT120 12/07 A2991 RMK AO2 SLP130 T01170067 401500089
cycle: 5

Station Type Date Time Source
KAZO TAF 2021/09/23 23:33 UTC NOAA

TAF
AMD KAZO 232231Z 2323/2418 28012G22KT P6SM OVC070
FM240200 29011KT P6SM VCSH OVC035
FM240900 26005KT P6SM SCT040
FM241400 26007KT P6SM FEW250

Example: see airport list